createdAt,value
2018-11-01T00:01:41.718Z,8.50
2018-11-01T00:04:10.294Z,8.30
2018-11-01T00:06:38.881Z,8.20
2018-11-01T00:09:08.967Z,8.20
2018-11-01T00:11:37.503Z,8.10
2018-11-01T00:14:06.719Z,8.00
2018-11-01T00:16:35.307Z,8.10
2018-11-01T00:19:03.847Z,8.20
2018-11-01T00:21:32.367Z,8.30
2018-11-01T00:24:01.000Z,8.40
2018-11-01T00:26:29.528Z,8.40
2018-11-01T00:28:58.072Z,8.40
2018-11-01T00:31:26.656Z,8.50
2018-11-01T00:33:55.645Z,8.50
2018-11-01T00:36:24.100Z,8.40
2018-11-01T00:38:52.741Z,8.00
2018-11-01T00:41:21.253Z,8.00
2018-11-01T00:43:49.796Z,8.10
2018-11-01T00:46:18.304Z,8.20
2018-11-01T00:48:46.938Z,8.30
2018-11-01T00:51:15.569Z,8.40
2018-11-01T00:53:44.140Z,8.50
2018-11-01T00:56:12.620Z,8.50
2018-11-01T00:58:41.172Z,8.60
2018-11-01T01:01:09.808Z,8.60
2018-11-01T01:03:38.330Z,8.50
2018-11-01T01:06:06.963Z,8.20
2018-11-01T01:08:35.712Z,8.10
2018-11-01T01:11:04.302Z,8.10
2018-11-01T01:13:32.858Z,8.30
2018-11-01T01:16:01.377Z,8.40
2018-11-01T01:18:29.981Z,8.40
2018-11-01T01:20:58.592Z,8.40
2018-11-01T01:23:27.190Z,8.50
2018-11-01T01:25:55.714Z,8.50
2018-11-01T01:28:24.332Z,8.60
2018-11-01T01:30:52.839Z,8.60
2018-11-01T01:33:21.440Z,8.70
2018-11-01T01:35:50.040Z,8.70
2018-11-01T01:38:18.667Z,8.70
2018-11-01T01:40:47.242Z,8.60
2018-11-01T01:43:15.852Z,8.50
2018-11-01T01:45:44.427Z,8.50
2018-11-01T01:48:12.973Z,8.40
2018-11-01T01:50:41.563Z,8.50
2018-11-01T01:53:10.118Z,8.20
2018-11-01T01:55:38.650Z,8.20
2018-11-01T01:58:07.196Z,8.20
2018-11-01T02:00:35.856Z,8.20
2018-11-01T02:03:04.466Z,8.20
2018-11-01T02:05:32.969Z,8.20
2018-11-01T02:08:01.520Z,8.10
2018-11-01T02:10:30.069Z,8.10
2018-11-01T02:12:58.764Z,8.10
2018-11-01T02:15:27.286Z,8.10
2018-11-01T02:17:55.821Z,8.10
2018-11-01T02:20:24.308Z,8.00
2018-11-01T02:22:52.816Z,8.00
2018-11-01T02:25:21.314Z,7.90
2018-11-01T02:27:55.245Z,7.60
2018-11-01T02:30:23.913Z,7.60
2018-11-01T02:32:52.478Z,7.60
2018-11-01T02:35:21.072Z,7.50
2018-11-01T02:37:49.695Z,7.50
2018-11-01T02:40:18.265Z,7.40
2018-11-01T02:42:46.917Z,7.30
2018-11-01T02:45:16.081Z,7.40
2018-11-01T02:47:44.655Z,7.40
2018-11-01T02:50:14.107Z,7.40
2018-11-01T02:52:42.650Z,7.30
2018-11-01T02:55:11.303Z,7.40
2018-11-01T02:57:39.852Z,7.20
2018-11-01T03:00:11.105Z,7.10
2018-11-01T03:02:39.717Z,7.00
2018-11-01T03:05:09.155Z,6.90
2018-11-01T03:07:37.718Z,6.90
2018-11-01T03:10:07.917Z,7.10
2018-11-01T03:12:36.522Z,6.90
2018-11-01T03:15:06.348Z,6.80
2018-11-01T03:17:34.905Z,6.70
2018-11-01T03:20:03.508Z,6.60
2018-11-01T03:22:32.030Z,6.60
2018-11-01T03:25:00.618Z,6.70
2018-11-01T03:27:29.141Z,6.80
2018-11-01T03:29:57.673Z,6.90
2018-11-01T03:32:26.198Z,7.10
2018-11-01T03:34:54.812Z,7.00
2018-11-01T03:37:23.412Z,7.10
2018-11-01T03:39:52.089Z,7.10
2018-11-01T03:42:20.698Z,7.20
2018-11-01T03:44:49.262Z,7.30
2018-11-01T03:47:17.847Z,7.30
2018-11-01T03:49:46.354Z,7.30
2018-11-01T03:52:14.921Z,7.20
2018-11-01T03:54:43.456Z,7.30
2018-11-01T03:57:12.025Z,7.30
2018-11-01T03:59:40.522Z,7.40
2018-11-01T04:02:09.073Z,7.30
2018-11-01T04:04:37.660Z,7.20
2018-11-01T04:07:06.333Z,7.20
2018-11-01T04:09:34.807Z,7.20
2018-11-01T04:12:03.395Z,7.30
2018-11-01T04:14:31.913Z,7.30
2018-11-01T04:17:00.533Z,7.30
2018-11-01T04:19:28.940Z,7.30
2018-11-01T04:22:02.699Z,7.10
2018-11-01T04:24:31.237Z,6.90
2018-11-01T04:26:59.770Z,6.70
2018-11-01T04:29:28.536Z,6.50
2018-11-01T04:31:57.060Z,6.40
2018-11-01T04:34:25.882Z,6.50
2018-11-01T04:36:54.395Z,6.50
2018-11-01T04:39:22.892Z,6.40
2018-11-01T04:41:51.850Z,6.50
2018-11-01T04:44:20.559Z,6.50
2018-11-01T04:46:49.006Z,6.70
2018-11-01T04:49:17.534Z,6.80
2018-11-01T04:51:46.079Z,6.90
2018-11-01T04:54:14.640Z,6.90
2018-11-01T04:56:43.130Z,6.80
2018-11-01T04:59:11.641Z,6.80
2018-11-01T05:01:40.230Z,6.80
2018-11-01T05:04:08.729Z,6.80
2018-11-01T05:06:37.318Z,6.80
2018-11-01T05:09:07.375Z,6.90
2018-11-01T05:11:35.908Z,6.90
2018-11-01T05:14:04.544Z,6.90
2018-11-01T05:16:33.054Z,6.80
2018-11-01T05:19:01.714Z,6.70
2018-11-01T05:21:30.291Z,6.60
2018-11-01T05:24:00.960Z,6.70
2018-11-01T05:26:30.137Z,6.70
2018-11-01T05:28:58.754Z,6.90
2018-11-01T05:31:27.286Z,6.70
2018-11-01T05:33:55.793Z,6.70
2018-11-01T05:36:24.291Z,6.80
2018-11-01T05:38:52.774Z,6.80
2018-11-01T05:41:21.407Z,6.60
2018-11-01T05:43:49.943Z,6.70
2018-11-01T05:46:18.459Z,6.60
2018-11-01T05:48:47.073Z,6.70
2018-11-01T05:51:15.648Z,6.60
2018-11-01T05:53:44.170Z,6.60
2018-11-01T05:56:12.832Z,6.60
2018-11-01T05:58:41.464Z,6.70
2018-11-01T06:01:12.808Z,6.60
2018-11-01T06:03:41.710Z,6.70
2018-11-01T06:06:10.211Z,6.70
2018-11-01T06:08:40.771Z,6.60
2018-11-01T06:11:09.368Z,6.60
2018-11-01T06:13:37.825Z,6.50
2018-11-01T06:16:06.523Z,6.60
2018-11-01T06:18:35.161Z,6.60
2018-11-01T06:21:03.987Z,6.60
2018-11-01T06:23:32.499Z,6.70
2018-11-01T06:26:01.201Z,6.90
2018-11-01T06:28:29.802Z,7.10
2018-11-01T06:30:58.733Z,7.30
2018-11-01T06:33:27.550Z,7.40
2018-11-01T06:35:58.987Z,7.50
2018-11-01T06:38:27.721Z,7.60
2018-11-01T06:40:56.433Z,7.70
2018-11-01T06:43:24.964Z,7.50
2018-11-01T06:45:53.442Z,7.30
2018-11-01T06:48:21.982Z,7.10
2018-11-01T06:50:50.607Z,6.90
2018-11-01T06:53:19.103Z,6.80
2018-11-01T06:55:47.600Z,6.80
2018-11-01T06:58:16.101Z,6.80
2018-11-01T07:00:44.620Z,7.00
2018-11-01T07:03:13.208Z,7.20
2018-11-01T07:05:41.795Z,7.50
2018-11-01T07:08:10.191Z,7.50
2018-11-01T07:10:38.681Z,7.60
2018-11-01T07:13:07.183Z,7.60
2018-11-01T07:15:35.804Z,7.70
2018-11-01T07:18:04.410Z,7.80
2018-11-01T07:20:32.900Z,7.90
2018-11-01T07:23:01.485Z,7.70
2018-11-01T07:25:30.146Z,7.60
2018-11-01T07:27:59.106Z,7.70
2018-11-01T07:30:27.674Z,7.80
2018-11-01T07:32:56.254Z,7.90
2018-11-01T07:35:24.938Z,7.90
2018-11-01T07:37:53.420Z,7.90
2018-11-01T07:40:21.981Z,8.00
2018-11-01T07:42:50.637Z,8.00
2018-11-01T07:45:19.170Z,8.20
2018-11-01T07:47:47.804Z,8.40
2018-11-01T07:50:16.527Z,8.40
2018-11-01T07:52:46.018Z,8.40
2018-11-01T07:55:15.643Z,8.40
2018-11-01T07:57:44.440Z,8.40
2018-11-01T08:00:15.901Z,8.40
2018-11-01T08:02:45.509Z,8.10
2018-11-01T08:05:14.201Z,8.00
2018-11-01T08:07:43.265Z,8.00
2018-11-01T08:10:14.298Z,8.10
2018-11-01T08:12:43.829Z,8.00
2018-11-01T08:15:13.977Z,7.90
2018-11-01T08:17:42.727Z,8.00
2018-11-01T08:20:13.082Z,8.30
2018-11-01T08:22:41.678Z,8.40
2018-11-01T08:25:11.300Z,8.60
2018-11-01T08:27:40.489Z,8.70
2018-11-01T08:30:11.157Z,8.80
2018-11-01T08:32:39.767Z,8.70
2018-11-01T08:35:09.036Z,8.70
2018-11-01T08:37:38.033Z,8.70
2018-11-01T08:40:07.733Z,8.60
2018-11-01T08:42:36.666Z,8.50
2018-11-01T08:45:06.268Z,8.40
2018-11-01T08:47:34.772Z,8.30
2018-11-01T08:50:03.470Z,8.30
2018-11-01T08:52:32.132Z,8.50
2018-11-01T08:55:00.784Z,8.60
2018-11-01T08:57:29.341Z,8.60
2018-11-01T08:59:57.916Z,8.40
2018-11-01T09:02:26.445Z,8.30
2018-11-01T09:04:55.065Z,8.30
2018-11-01T09:07:23.643Z,8.30
2018-11-01T09:09:52.221Z,8.20
2018-11-01T09:12:20.879Z,8.30
2018-11-01T09:14:49.477Z,8.40
2018-11-01T09:17:18.295Z,8.60
2018-11-01T09:19:47.132Z,8.60
2018-11-01T09:22:16.163Z,8.50
2018-11-01T09:24:44.840Z,8.60
2018-11-01T09:27:13.567Z,8.70
2018-11-01T09:29:42.426Z,8.70
2018-11-01T09:32:11.206Z,8.90
2018-11-01T09:34:40.084Z,8.90
2018-11-01T09:37:08.843Z,8.90
2018-11-01T09:39:37.908Z,9.00
2018-11-01T09:42:09.941Z,9.00
2018-11-01T09:44:43.783Z,9.20
2018-11-01T09:47:15.245Z,9.20
2018-11-01T09:49:45.434Z,9.30
2018-11-01T09:52:14.193Z,9.40
2018-11-01T09:54:42.809Z,9.40
2018-11-01T09:57:11.449Z,9.60
2018-11-01T09:59:40.219Z,9.60
2018-11-01T10:02:08.938Z,9.60
2018-11-01T10:04:37.748Z,9.50
2018-11-01T10:07:08.561Z,9.50
2018-11-01T10:09:37.736Z,9.50
2018-11-01T10:12:06.786Z,9.40
2018-11-01T10:14:35.630Z,9.30
2018-11-01T10:17:05.486Z,9.30
2018-11-01T10:19:33.937Z,9.30
2018-11-01T10:22:02.926Z,9.30
2018-11-01T10:24:34.115Z,9.30
2018-11-01T10:27:03.114Z,9.20
2018-11-01T10:29:32.388Z,9.30
2018-11-01T10:32:01.218Z,9.40
2018-11-01T10:34:30.201Z,9.60
2018-11-01T10:36:59.929Z,9.80
2018-11-01T10:39:28.772Z,10.10
2018-11-01T10:41:57.721Z,10.20
2018-11-01T10:44:26.576Z,10.10
2018-11-01T10:46:55.482Z,10.20
2018-11-01T10:49:24.608Z,10.30
2018-11-01T10:51:53.476Z,10.50
2018-11-01T10:54:22.236Z,10.60
2018-11-01T10:56:50.950Z,10.80
2018-11-01T10:59:19.745Z,11.00
2018-11-01T11:01:53.674Z,11.20
2018-11-01T11:04:22.669Z,11.30
2018-11-01T11:06:51.686Z,11.30
2018-11-01T11:09:20.266Z,11.40
2018-11-01T11:11:48.899Z,11.40
2018-11-01T11:14:17.601Z,11.50
2018-11-01T11:16:46.234Z,11.50
2018-11-01T11:19:14.775Z,11.60
2018-11-01T11:21:43.489Z,11.70
2018-11-01T11:24:12.100Z,11.90
2018-11-01T11:26:41.194Z,12.00
2018-11-01T11:29:11.748Z,12.10
2018-11-01T11:31:40.421Z,12.10
2018-11-01T11:34:09.703Z,12.10
2018-11-01T11:36:38.492Z,12.10
2018-11-01T11:39:09.936Z,12.10
2018-11-01T11:44:29.118Z,12.20
2018-11-01T11:46:57.660Z,12.30
2018-11-01T11:49:26.109Z,12.30
2018-11-01T11:51:54.527Z,12.30
2018-11-01T11:54:23.182Z,12.30
2018-11-01T11:56:51.659Z,12.30
2018-11-01T11:59:20.097Z,12.30
2018-11-01T12:01:48.644Z,12.40
2018-11-01T12:04:17.079Z,12.50
2018-11-01T12:06:45.521Z,12.60
2018-11-01T12:09:14.118Z,12.80
2018-11-01T12:11:42.629Z,12.70
2018-11-01T12:14:11.103Z,12.70
2018-11-01T12:16:39.498Z,12.90
2018-11-01T12:19:07.907Z,13.10
2018-11-01T12:21:36.325Z,13.10
2018-11-01T12:24:05.250Z,13.10
2018-11-01T12:26:33.726Z,12.90
2018-11-01T12:29:02.245Z,12.90
2018-11-01T12:31:30.694Z,12.90
2018-11-01T12:33:59.104Z,12.80
2018-11-01T12:36:27.534Z,12.70
2018-11-01T12:38:55.944Z,12.80
2018-11-01T12:44:35.032Z,13.00
2018-11-01T12:48:21.370Z,13.20
2018-11-01T12:54:18.145Z,13.30
2018-11-01T12:56:46.558Z,13.30
2018-11-01T12:59:15.015Z,13.20
2018-11-01T13:01:43.408Z,13.30
2018-11-01T13:04:11.849Z,13.20
2018-11-01T13:06:40.318Z,13.20
2018-11-01T13:09:12.074Z,13.00
2018-11-01T13:11:40.478Z,12.90
2018-11-01T13:14:08.876Z,12.90
2018-11-01T13:16:37.641Z,13.00
2018-11-01T13:19:06.290Z,13.10
2018-11-01T13:21:34.710Z,13.20
2018-11-01T13:24:03.083Z,13.20
2018-11-01T13:26:31.494Z,13.20
2018-11-01T13:28:59.922Z,13.20
2018-11-01T13:31:28.286Z,13.30
2018-11-01T13:33:56.710Z,13.30
2018-11-01T13:36:25.894Z,13.40
2018-11-01T13:38:54.332Z,13.20
2018-11-01T13:41:22.852Z,13.10
2018-11-01T13:43:51.157Z,13.10
2018-11-01T13:46:19.624Z,13.10
2018-11-01T13:48:48.044Z,13.10
2018-11-01T13:51:16.449Z,12.90
2018-11-01T13:53:44.835Z,13.00
2018-11-01T13:56:13.307Z,13.00
2018-11-01T13:58:41.722Z,13.10
2018-11-01T14:01:10.142Z,13.20
2018-11-01T14:03:38.548Z,13.10
2018-11-01T14:06:07.020Z,13.10
2018-11-01T14:08:35.463Z,13.10
2018-11-01T14:11:03.898Z,13.20
2018-11-01T14:13:32.535Z,13.30
2018-11-01T14:16:00.765Z,13.30
2018-11-01T14:18:29.205Z,13.20
2018-11-01T14:20:57.594Z,13.20
2018-11-01T14:23:25.987Z,13.20
2018-11-01T14:25:54.432Z,13.20
2018-11-01T14:28:22.834Z,13.10
2018-11-01T14:30:51.317Z,13.10
2018-11-01T14:33:19.691Z,13.10
2018-11-01T14:35:48.094Z,13.10
2018-11-01T14:38:16.517Z,13.20
2018-11-01T14:40:44.951Z,13.20
2018-11-01T14:43:13.379Z,13.20
2018-11-01T14:45:41.784Z,13.20
2018-11-01T14:48:10.169Z,13.20
2018-11-01T14:50:38.650Z,13.40
2018-11-01T14:53:07.780Z,13.30
2018-11-01T14:55:37.245Z,13.30
2018-11-01T14:58:05.771Z,13.40
2018-11-01T15:00:32.652Z,13.50
2018-11-01T15:03:01.132Z,13.40
2018-11-01T15:05:29.538Z,13.50
2018-11-01T15:07:57.988Z,13.50
2018-11-01T15:10:26.394Z,13.60
2018-11-01T15:12:54.843Z,13.70
2018-11-01T15:15:23.317Z,13.80
2018-11-01T15:17:51.778Z,13.90
2018-11-01T15:20:20.295Z,13.90
2018-11-01T15:22:48.962Z,14.10
2018-11-01T15:25:17.659Z,14.20
2018-11-01T15:27:46.121Z,14.30
2018-11-01T15:30:15.643Z,14.40
2018-11-01T15:32:44.547Z,14.50
2018-11-01T15:35:13.010Z,14.60
2018-11-01T15:37:41.457Z,14.60
2018-11-01T15:40:11.102Z,14.60
2018-11-01T15:42:39.972Z,14.70
2018-11-01T15:45:09.194Z,14.60
2018-11-01T15:47:38.097Z,14.60
2018-11-01T15:50:07.364Z,14.50
2018-11-01T15:52:36.741Z,14.40
2018-11-01T15:55:06.223Z,14.40
2018-11-01T15:57:35.278Z,14.20
2018-11-01T16:00:03.778Z,14.10
2018-11-01T16:02:32.222Z,13.90
2018-11-01T16:05:00.663Z,13.80
2018-11-01T16:07:29.097Z,13.80
2018-11-01T16:09:58.313Z,13.60
2018-11-01T16:12:27.711Z,13.60
2018-11-01T16:14:56.132Z,13.50
2018-11-01T16:17:24.543Z,13.40
2018-11-01T16:19:53.013Z,13.30
2018-11-01T16:22:21.425Z,13.20
2018-11-01T16:24:50.545Z,13.00
2018-11-01T16:27:19.541Z,12.80
2018-11-01T16:29:47.826Z,12.50
2018-11-01T16:32:16.283Z,12.30
2018-11-01T16:34:45.115Z,12.20
2018-11-01T16:37:13.819Z,12.00
2018-11-01T16:39:42.158Z,11.80
2018-11-01T16:42:10.706Z,11.70
2018-11-01T16:44:39.108Z,11.60
2018-11-01T16:47:08.505Z,11.60
2018-11-01T16:49:37.000Z,11.60
2018-11-01T16:52:05.524Z,11.60
2018-11-01T16:54:34.019Z,11.60
2018-11-01T16:57:08.659Z,11.60
2018-11-01T16:59:37.267Z,11.60
2018-11-01T17:02:07.623Z,11.60
2018-11-01T17:04:37.918Z,11.60
2018-11-01T17:07:06.911Z,11.50
2018-11-01T17:09:35.323Z,11.50
2018-11-01T17:12:03.862Z,11.50
2018-11-01T17:14:33.055Z,11.50
2018-11-01T17:17:01.514Z,11.50
2018-11-01T17:19:30.038Z,11.40
2018-11-01T17:21:58.591Z,11.40
2018-11-01T17:24:27.256Z,11.40
2018-11-01T17:26:55.805Z,11.30
2018-11-01T17:29:24.481Z,11.20
2018-11-01T17:31:53.090Z,11.10
2018-11-01T17:34:21.752Z,10.90
2018-11-01T17:36:50.603Z,10.70
2018-11-01T17:39:19.221Z,10.60
2018-11-01T17:41:47.785Z,10.50
2018-11-01T17:44:16.315Z,10.40
2018-11-01T17:46:45.009Z,10.40
2018-11-01T17:49:13.446Z,10.50
2018-11-01T17:51:41.915Z,10.60
2018-11-01T17:54:14.817Z,10.70
2018-11-01T17:56:44.012Z,10.70
2018-11-01T17:59:12.481Z,10.60
2018-11-01T18:01:40.986Z,10.50
2018-11-01T18:04:10.092Z,10.30
2018-11-01T18:06:38.518Z,9.90
2018-11-01T18:09:09.394Z,9.70
2018-11-01T18:11:37.921Z,9.80
2018-11-01T18:14:06.472Z,9.90
2018-11-01T18:16:35.054Z,10.00
2018-11-01T18:19:03.701Z,10.00
2018-11-01T18:21:32.163Z,10.10
2018-11-01T18:24:00.641Z,10.10
2018-11-01T18:26:29.131Z,10.30
2018-11-01T18:28:57.643Z,10.30
2018-11-01T18:31:26.092Z,10.40
2018-11-01T18:33:54.536Z,10.40
2018-11-01T18:36:22.997Z,10.30
2018-11-01T18:38:51.435Z,10.00
2018-11-01T18:41:19.954Z,9.90
2018-11-01T18:43:49.603Z,9.80
2018-11-01T18:46:18.660Z,9.90
2018-11-01T18:48:47.649Z,10.10
2018-11-01T18:51:16.475Z,10.20
2018-11-01T18:53:45.019Z,10.20
2018-11-01T18:56:13.608Z,10.10
2018-11-01T18:58:42.195Z,10.10
2018-11-01T19:01:10.749Z,10.10
2018-11-01T19:03:39.382Z,10.10
2018-11-01T19:06:08.025Z,10.10
2018-11-01T19:08:36.748Z,9.90
2018-11-01T19:11:05.731Z,9.80
2018-11-01T19:13:35.228Z,9.80
2018-11-01T19:16:03.873Z,9.80
2018-11-01T19:18:32.655Z,9.80
2018-11-01T19:21:01.575Z,9.70
2018-11-01T19:23:30.232Z,9.60
2018-11-01T19:25:59.306Z,9.70
2018-11-01T19:28:27.902Z,9.60
2018-11-01T19:30:56.336Z,9.50
2018-11-01T19:33:24.802Z,9.50
2018-11-01T19:35:53.237Z,9.50
2018-11-01T19:38:21.795Z,9.40
2018-11-01T19:40:50.640Z,9.30
2018-11-01T19:43:19.446Z,9.30
2018-11-01T19:45:48.134Z,9.20
2018-11-01T19:48:16.763Z,9.20
2018-11-01T19:50:45.706Z,9.30
2018-11-01T19:53:14.308Z,9.30
2018-11-01T19:55:42.979Z,9.20
2018-11-01T19:58:11.526Z,9.10
2018-11-01T20:00:40.058Z,9.10
2018-11-01T20:03:08.683Z,9.00
2018-11-01T20:05:37.153Z,9.00
2018-11-01T20:08:06.494Z,9.00
2018-11-01T20:10:34.925Z,9.00
2018-11-01T20:13:03.427Z,8.90
2018-11-01T20:15:31.862Z,8.90
2018-11-01T20:18:00.327Z,8.90
2018-11-01T20:20:28.770Z,8.90
2018-11-01T20:22:57.517Z,8.90
2018-11-01T20:25:25.999Z,8.80
2018-11-01T20:27:54.404Z,8.80
2018-11-01T20:30:23.413Z,8.80
2018-11-01T20:32:51.876Z,8.90
2018-11-01T20:35:20.297Z,8.80
2018-11-01T20:37:48.750Z,8.90
2018-11-01T20:40:17.218Z,8.80
2018-11-01T20:42:45.719Z,8.80
2018-11-01T20:45:14.473Z,8.90
2018-11-01T20:47:42.908Z,8.80
2018-11-01T20:50:12.514Z,8.80
2018-11-01T20:52:41.418Z,8.70
2018-11-01T20:55:09.928Z,8.80
2018-11-01T20:57:38.616Z,8.70
2018-11-01T21:00:09.206Z,8.70
2018-11-01T21:02:37.834Z,8.70
2018-11-01T21:05:06.563Z,8.70
2018-11-01T21:07:34.892Z,8.80
2018-11-01T21:10:03.842Z,8.70
2018-11-01T21:12:32.319Z,8.80
2018-11-01T21:15:01.365Z,8.90
2018-11-01T21:17:29.805Z,8.90
2018-11-01T21:19:58.713Z,8.80
2018-11-01T21:22:27.162Z,8.80
2018-11-01T21:24:55.650Z,8.80
2018-11-01T21:27:24.286Z,8.80
2018-11-01T21:29:52.713Z,8.80
2018-11-01T21:32:21.287Z,8.70
2018-11-01T21:34:49.769Z,8.70
2018-11-01T21:37:18.751Z,8.70
2018-11-01T21:39:47.201Z,8.60
2018-11-01T21:42:15.643Z,8.60
2018-11-01T21:44:44.136Z,8.60
2018-11-01T21:47:12.681Z,8.60
2018-11-01T21:49:41.736Z,8.50
2018-11-01T21:52:10.357Z,8.40
2018-11-01T21:54:38.807Z,8.40
2018-11-01T21:57:07.320Z,8.40
2018-11-01T21:59:35.764Z,8.40
2018-11-01T22:02:04.233Z,8.30
2018-11-01T22:04:32.806Z,8.20
2018-11-01T22:07:01.257Z,8.20
2018-11-01T22:09:29.798Z,8.20
2018-11-01T22:11:58.210Z,8.10
2018-11-01T22:14:26.622Z,8.10
2018-11-01T22:16:55.186Z,8.10
2018-11-01T22:19:24.119Z,8.10
2018-11-01T22:21:52.650Z,8.10
2018-11-01T22:24:21.269Z,8.10
2018-11-01T22:26:49.790Z,8.10
2018-11-01T22:29:18.494Z,8.20
2018-11-01T22:31:47.157Z,8.30
2018-11-01T22:34:15.698Z,8.30
2018-11-01T22:36:44.131Z,8.30
2018-11-01T22:39:13.021Z,8.30
2018-11-01T22:41:41.549Z,8.40
2018-11-01T22:44:10.436Z,8.30
2018-11-01T22:46:38.823Z,8.40
2018-11-01T22:49:07.312Z,8.40
2018-11-01T22:51:36.713Z,8.40
2018-11-01T22:54:05.422Z,8.40
2018-11-01T22:56:33.806Z,8.30
2018-11-01T22:59:02.269Z,8.30
2018-11-01T23:01:30.711Z,8.20
2018-11-01T23:03:59.172Z,8.20
2018-11-01T23:06:27.687Z,8.20
2018-11-01T23:08:56.221Z,8.20
2018-11-01T23:11:24.662Z,8.30
2018-11-01T23:13:53.107Z,8.30
2018-11-01T23:16:21.552Z,8.40
2018-11-01T23:18:50.311Z,8.30
2018-11-01T23:21:18.763Z,8.30
2018-11-01T23:23:47.154Z,8.30
2018-11-01T23:26:15.597Z,8.30
2018-11-01T23:28:44.027Z,8.30
2018-11-01T23:31:12.470Z,8.20
2018-11-01T23:33:41.328Z,8.30
2018-11-01T23:36:08.957Z,8.20
2018-11-01T23:38:42.990Z,8.20
2018-11-01T23:41:16.635Z,8.20
2018-11-01T23:43:50.716Z,8.10
2018-11-01T23:46:24.588Z,8.00
2018-11-01T23:48:58.273Z,8.00
2018-11-01T23:51:26.723Z,8.00
2018-11-01T23:53:55.117Z,8.00
2018-11-01T23:56:23.963Z,8.10
2018-11-01T23:58:52.371Z,8.00
